sensor_id;sensor_type;location;lat;lon;timestamp;P1;durP1;ratioP1;P2;durP2;ratioP2
64210;SDS011;50528;48.514;14.394;2022-07-25T00:00:07;10.00;;;7.60;;
64210;SDS011;50528;48.514;14.394;2022-07-25T00:01:32;9.10;;;7.60;;
64210;SDS011;50528;48.514;14.394;2022-07-25T00:02:37;8.70;;;7.20;;
64210;SDS011;50528;48.514;14.394;2022-07-25T00:03:40;8.40;;;6.90;;
64210;SDS011;50528;48.514;14.394;2022-07-25T00:04:44;10.50;;;7.00;;
64210;SDS011;50528;48.514;14.394;2022-07-25T00:05:48;7.90;;;6.80;;
64210;SDS011;50528;48.514;14.394;2022-07-25T00:06:53;12.50;;;7.00;;
64210;SDS011;50528;48.514;14.394;2022-07-25T00:07:57;9.80;;;7.20;;
64210;SDS011;50528;48.514;14.394;2022-07-25T00:09:00;9.20;;;7.40;;
64210;SDS011;50528;48.514;14.394;2022-07-25T00:10:04;8.00;;;7.20;;
64210;SDS011;50528;48.514;14.394;2022-07-25T00:11:09;12.10;;;7.50;;
64210;SDS011;50528;48.514;14.394;2022-07-25T00:12:13;9.00;;;7.30;;
64210;SDS011;50528;48.514;14.394;2022-07-25T00:13:16;7.30;;;6.50;;
64210;SDS011;50528;48.514;14.394;2022-07-25T00:14:20;11.90;;;7.10;;
64210;SDS011;50528;48.514;14.394;2022-07-25T00:15:23;7.80;;;7.00;;
64210;SDS011;50528;48.514;14.394;2022-07-25T00:16:27;10.00;;;7.00;;
64210;SDS011;50528;48.514;14.394;2022-07-25T00:17:30;10.30;;;8.00;;
64210;SDS011;50528;48.514;14.394;2022-07-25T00:18:34;10.00;;;6.90;;
64210;SDS011;50528;48.514;14.394;2022-07-25T00:19:39;8.80;;;7.60;;
64210;SDS011;50528;48.514;14.394;2022-07-25T00:20:42;10.90;;;6.90;;
64210;SDS011;50528;48.514;14.394;2022-07-25T00:21:48;7.90;;;6.70;;
64210;SDS011;50528;48.514;14.394;2022-07-25T00:22:52;8.40;;;7.50;;
64210;SDS011;50528;48.514;14.394;2022-07-25T00:23:55;8.70;;;7.00;;
64210;SDS011;50528;48.514;14.394;2022-07-25T00:25:00;9.80;;;7.30;;
64210;SDS011;50528;48.514;14.394;2022-07-25T00:26:04;10.70;;;7.30;;
64210;SDS011;50528;48.514;14.394;2022-07-25T00:27:08;9.30;;;7.50;;
64210;SDS011;50528;48.514;14.394;2022-07-25T00:28:12;9.90;;;7.90;;
64210;SDS011;50528;48.514;14.394;2022-07-25T00:29:15;10.50;;;8.00;;
64210;SDS011;50528;48.514;14.394;2022-07-25T00:30:19;10.30;;;8.00;;
64210;SDS011;50528;48.514;14.394;2022-07-25T00:31:24;8.70;;;7.80;;
64210;SDS011;50528;48.514;14.394;2022-07-25T00:32:28;8.80;;;7.40;;
64210;SDS011;50528;48.514;14.394;2022-07-25T00:33:31;9.30;;;7.20;;
64210;SDS011;50528;48.514;14.394;2022-07-25T00:34:35;9.00;;;7.60;;
64210;SDS011;50528;48.514;14.394;2022-07-25T00:35:38;9.20;;;7.90;;
64210;SDS011;50528;48.514;14.394;2022-07-25T00:36:42;9.50;;;7.50;;
64210;SDS011;50528;48.514;14.394;2022-07-25T00:37:45;10.90;;;7.10;;
64210;SDS011;50528;48.514;14.394;2022-07-25T00:38:49;9.30;;;7.10;;
64210;SDS011;50528;48.514;14.394;2022-07-25T00:39:53;11.50;;;7.20;;
64210;SDS011;50528;48.514;14.394;2022-07-25T00:40:56;8.70;;;7.10;;
64210;SDS011;50528;48.514;14.394;2022-07-25T00:42:00;7.80;;;6.80;;
64210;SDS011;50528;48.514;14.394;2022-07-25T00:43:05;8.60;;;6.60;;
64210;SDS011;50528;48.514;14.394;2022-07-25T00:44:20;10.30;;;7.20;;
64210;SDS011;50528;48.514;14.394;2022-07-25T00:45:41;12.10;;;7.60;;
64210;SDS011;50528;48.514;14.394;2022-07-25T00:46:45;12.30;;;7.30;;
64210;SDS011;50528;48.514;14.394;2022-07-25T00:47:49;11.30;;;8.10;;
64210;SDS011;50528;48.514;14.394;2022-07-25T00:48:52;11.40;;;7.70;;
64210;SDS011;50528;48.514;14.394;2022-07-25T00:49:56;8.60;;;7.70;;
64210;SDS011;50528;48.514;14.394;2022-07-25T00:51:01;10.20;;;8.10;;
64210;SDS011;50528;48.514;14.394;2022-07-25T00:52:05;10.20;;;8.10;;
64210;SDS011;50528;48.514;14.394;2022-07-25T00:53:09;9.10;;;7.80;;
64210;SDS011;50528;48.514;14.394;2022-07-25T00:54:13;8.70;;;7.30;;
64210;SDS011;50528;48.514;14.394;2022-07-25T00:55:18;8.80;;;7.50;;
64210;SDS011;50528;48.514;14.394;2022-07-25T00:56:22;8.10;;;7.30;;
64210;SDS011;50528;48.514;14.394;2022-07-25T00:57:26;8.30;;;7.20;;
64210;SDS011;50528;48.514;14.394;2022-07-25T00:58:30;9.40;;;6.80;;
64210;SDS011;50528;48.514;14.394;2022-07-25T00:59:34;9.00;;;7.10;;
64210;SDS011;50528;48.514;14.394;2022-07-25T01:00:38;8.80;;;7.40;;
64210;SDS011;50528;48.514;14.394;2022-07-25T01:01:42;9.60;;;7.40;;
64210;SDS011;50528;48.514;14.394;2022-07-25T01:02:47;9.00;;;7.50;;
64210;SDS011;50528;48.514;14.394;2022-07-25T01:03:52;8.90;;;7.60;;
64210;SDS011;50528;48.514;14.394;2022-07-25T01:04:56;8.60;;;7.20;;
64210;SDS011;50528;48.514;14.394;2022-07-25T01:06:00;8.70;;;7.70;;
64210;SDS011;50528;48.514;14.394;2022-07-25T01:07:05;7.90;;;7.10;;
64210;SDS011;50528;48.514;14.394;2022-07-25T01:08:09;7.90;;;7.10;;
64210;SDS011;50528;48.514;14.394;2022-07-25T01:09:12;8.30;;;6.40;;
64210;SDS011;50528;48.514;14.394;2022-07-25T01:10:16;10.10;;;6.70;;
64210;SDS011;50528;48.514;14.394;2022-07-25T01:11:20;9.80;;;7.00;;
64210;SDS011;50528;48.514;14.394;2022-07-25T01:12:24;7.90;;;7.10;;
64210;SDS011;50528;48.514;14.394;2022-07-25T01:13:30;7.60;;;6.70;;
64210;SDS011;50528;48.514;14.394;2022-07-25T01:14:35;7.90;;;6.60;;
64210;SDS011;50528;48.514;14.394;2022-07-25T01:15:38;9.10;;;7.00;;
64210;SDS011;50528;48.514;14.394;2022-07-25T01:16:42;9.50;;;7.30;;
64210;SDS011;50528;48.514;14.394;2022-07-25T01:17:46;9.70;;;7.00;;
64210;SDS011;50528;48.514;14.394;2022-07-25T01:18:49;9.40;;;7.00;;
64210;SDS011;50528;48.514;14.394;2022-07-25T01:19:53;9.30;;;6.60;;
64210;SDS011;50528;48.514;14.394;2022-07-25T01:20:56;7.50;;;6.60;;
64210;SDS011;50528;48.514;14.394;2022-07-25T01:22:00;8.00;;;7.00;;
64210;SDS011;50528;48.514;14.394;2022-07-25T01:23:05;8.90;;;7.30;;
64210;SDS011;50528;48.514;14.394;2022-07-25T01:24:08;9.80;;;7.20;;
64210;SDS011;50528;48.514;14.394;2022-07-25T01:25:13;8.20;;;7.30;;
64210;SDS011;50528;48.514;14.394;2022-07-25T01:28:27;8.60;;;7.70;;
64210;SDS011;50528;48.514;14.394;2022-07-25T01:29:31;8.70;;;7.20;;
64210;SDS011;50528;48.514;14.394;2022-07-25T01:30:37;9.20;;;7.00;;
64210;SDS011;50528;48.514;14.394;2022-07-25T01:31:41;10.10;;;7.50;;
64210;SDS011;50528;48.514;14.394;2022-07-25T01:32:45;7.90;;;7.00;;
64210;SDS011;50528;48.514;14.394;2022-07-25T01:33:49;8.50;;;6.90;;
64210;SDS011;50528;48.514;14.394;2022-07-25T01:34:53;10.60;;;7.40;;
64210;SDS011;50528;48.514;14.394;2022-07-25T01:35:56;8.80;;;6.90;;
64210;SDS011;50528;48.514;14.394;2022-07-25T01:37:00;8.70;;;7.00;;
64210;SDS011;50528;48.514;14.394;2022-07-25T01:38:05;8.60;;;7.00;;
64210;SDS011;50528;48.514;14.394;2022-07-25T01:39:09;8.70;;;7.00;;
64210;SDS011;50528;48.514;14.394;2022-07-25T01:40:13;9.00;;;7.20;;
64210;SDS011;50528;48.514;14.394;2022-07-25T01:41:19;9.90;;;7.50;;
64210;SDS011;50528;48.514;14.394;2022-07-25T01:42:25;9.30;;;7.50;;
64210;SDS011;50528;48.514;14.394;2022-07-25T01:43:31;11.20;;;7.60;;
64210;SDS011;50528;48.514;14.394;2022-07-25T01:44:37;9.00;;;7.40;;
64210;SDS011;50528;48.514;14.394;2022-07-25T01:45:43;10.50;;;7.60;;
64210;SDS011;50528;48.514;14.394;2022-07-25T01:46:48;8.60;;;7.20;;
64210;SDS011;50528;48.514;14.394;2022-07-25T01:47:53;7.90;;;6.80;;
64210;SDS011;50528;48.514;14.394;2022-07-25T01:48:59;9.20;;;6.80;;
64210;SDS011;50528;48.514;14.394;2022-07-25T01:50:05;8.80;;;7.20;;
64210;SDS011;50528;48.514;14.394;2022-07-25T01:51:09;9.40;;;6.90;;
64210;SDS011;50528;48.514;14.394;2022-07-25T01:52:15;8.10;;;7.30;;
64210;SDS011;50528;48.514;14.394;2022-07-25T01:53:20;10.50;;;7.10;;
64210;SDS011;50528;48.514;14.394;2022-07-25T01:54:26;8.10;;;6.80;;
64210;SDS011;50528;48.514;14.394;2022-07-25T01:55:32;9.00;;;7.20;;
64210;SDS011;50528;48.514;14.394;2022-07-25T01:56:41;9.40;;;7.30;;
64210;SDS011;50528;48.514;14.394;2022-07-25T01:57:50;8.40;;;7.10;;
64210;SDS011;50528;48.514;14.394;2022-07-25T01:58:53;8.90;;;7.30;;
64210;SDS011;50528;48.514;14.394;2022-07-25T01:59:58;9.70;;;7.50;;
64210;SDS011;50528;48.514;14.394;2022-07-25T02:01:04;9.60;;;7.90;;
64210;SDS011;50528;48.514;14.394;2022-07-25T02:02:10;11.50;;;7.20;;
64210;SDS011;50528;48.514;14.394;2022-07-25T02:03:13;13.40;;;7.70;;
64210;SDS011;50528;48.514;14.394;2022-07-25T02:04:32;9.50;;;7.40;;
64210;SDS011;50528;48.514;14.394;2022-07-25T02:05:37;9.40;;;7.40;;
64210;SDS011;50528;48.514;14.394;2022-07-25T02:06:41;10.30;;;7.50;;
64210;SDS011;50528;48.514;14.394;2022-07-25T02:07:45;9.00;;;7.10;;
64210;SDS011;50528;48.514;14.394;2022-07-25T02:08:48;9.90;;;7.60;;
64210;SDS011;50528;48.514;14.394;2022-07-25T02:09:52;9.30;;;7.20;;
64210;SDS011;50528;48.514;14.394;2022-07-25T02:10:58;13.50;;;7.30;;
64210;SDS011;50528;48.514;14.394;2022-07-25T02:12:03;9.40;;;7.10;;
64210;SDS011;50528;48.514;14.394;2022-07-25T02:13:09;7.70;;;6.80;;
64210;SDS011;50528;48.514;14.394;2022-07-25T02:14:13;10.90;;;7.30;;
64210;SDS011;50528;48.514;14.394;2022-07-25T02:15:17;9.90;;;7.50;;
64210;SDS011;50528;48.514;14.394;2022-07-25T02:16:21;10.20;;;7.40;;
64210;SDS011;50528;48.514;14.394;2022-07-25T02:17:31;10.90;;;7.50;;
64210;SDS011;50528;48.514;14.394;2022-07-25T02:18:34;8.80;;;7.30;;
64210;SDS011;50528;48.514;14.394;2022-07-25T02:19:38;14.10;;;7.70;;
64210;SDS011;50528;48.514;14.394;2022-07-25T02:20:42;10.60;;;7.80;;
64210;SDS011;50528;48.514;14.394;2022-07-25T02:21:49;9.20;;;7.80;;
64210;SDS011;50528;48.514;14.394;2022-07-25T02:22:52;10.10;;;7.70;;
64210;SDS011;50528;48.514;14.394;2022-07-25T02:23:56;9.40;;;7.60;;
64210;SDS011;50528;48.514;14.394;2022-07-25T02:25:00;9.40;;;7.70;;
64210;SDS011;50528;48.514;14.394;2022-07-25T02:26:04;9.90;;;7.70;;
64210;SDS011;50528;48.514;14.394;2022-07-25T02:27:07;9.60;;;8.30;;
64210;SDS011;50528;48.514;14.394;2022-07-25T02:28:11;10.40;;;8.00;;
64210;SDS011;50528;48.514;14.394;2022-07-25T02:29:16;10.00;;;7.90;;
64210;SDS011;50528;48.514;14.394;2022-07-25T02:30:23;9.70;;;8.40;;
64210;SDS011;50528;48.514;14.394;2022-07-25T02:31:28;10.10;;;8.20;;
64210;SDS011;50528;48.514;14.394;2022-07-25T02:32:31;10.20;;;8.60;;
64210;SDS011;50528;48.514;14.394;2022-07-25T02:33:35;8.40;;;7.40;;
64210;SDS011;50528;48.514;14.394;2022-07-25T02:34:38;11.00;;;8.00;;
64210;SDS011;50528;48.514;14.394;2022-07-25T02:35:42;11.10;;;8.00;;
64210;SDS011;50528;48.514;14.394;2022-07-25T02:36:46;10.20;;;7.80;;
64210;SDS011;50528;48.514;14.394;2022-07-25T02:37:49;10.40;;;8.00;;
64210;SDS011;50528;48.514;14.394;2022-07-25T02:38:53;9.70;;;7.50;;
64210;SDS011;50528;48.514;14.394;2022-07-25T02:39:56;9.00;;;7.30;;
64210;SDS011;50528;48.514;14.394;2022-07-25T02:41:00;11.20;;;7.50;;
64210;SDS011;50528;48.514;14.394;2022-07-25T02:42:03;11.70;;;7.90;;
64210;SDS011;50528;48.514;14.394;2022-07-25T02:43:07;10.30;;;8.00;;
64210;SDS011;50528;48.514;14.394;2022-07-25T02:44:10;9.30;;;7.60;;
64210;SDS011;50528;48.514;14.394;2022-07-25T02:45:14;8.50;;;7.60;;
64210;SDS011;50528;48.514;14.394;2022-07-25T02:46:18;8.60;;;7.50;;
64210;SDS011;50528;48.514;14.394;2022-07-25T02:47:21;8.20;;;7.40;;
64210;SDS011;50528;48.514;14.394;2022-07-25T02:48:25;8.30;;;7.40;;
64210;SDS011;50528;48.514;14.394;2022-07-25T02:49:29;11.90;;;7.90;;
64210;SDS011;50528;48.514;14.394;2022-07-25T02:50:33;9.70;;;7.80;;
64210;SDS011;50528;48.514;14.394;2022-07-25T02:51:36;9.10;;;7.60;;
64210;SDS011;50528;48.514;14.394;2022-07-25T02:52:40;9.90;;;7.70;;
64210;SDS011;50528;48.514;14.394;2022-07-25T02:53:43;8.60;;;7.00;;
64210;SDS011;50528;48.514;14.394;2022-07-25T02:54:59;8.40;;;7.30;;
64210;SDS011;50528;48.514;14.394;2022-07-25T02:57:15;11.40;;;7.50;;
64210;SDS011;50528;48.514;14.394;2022-07-25T02:58:19;9.50;;;7.70;;
64210;SDS011;50528;48.514;14.394;2022-07-25T02:59:22;11.00;;;7.60;;
64210;SDS011;50528;48.514;14.394;2022-07-25T03:00:34;10.10;;;7.80;;
64210;SDS011;50528;48.514;14.394;2022-07-25T03:01:38;9.70;;;8.10;;
64210;SDS011;50528;48.514;14.394;2022-07-25T03:02:42;8.60;;;7.70;;
64210;SDS011;50528;48.514;14.394;2022-07-25T03:03:46;10.00;;;7.90;;
64210;SDS011;50528;48.514;14.394;2022-07-25T03:04:52;10.10;;;7.90;;
64210;SDS011;50528;48.514;14.394;2022-07-25T03:05:56;11.00;;;8.50;;
64210;SDS011;50528;48.514;14.394;2022-07-25T03:06:59;11.80;;;8.30;;
64210;SDS011;50528;48.514;14.394;2022-07-25T03:08:03;9.10;;;7.80;;
64210;SDS011;50528;48.514;14.394;2022-07-25T03:09:06;10.00;;;8.40;;
64210;SDS011;50528;48.514;14.394;2022-07-25T03:10:10;10.10;;;8.00;;
64210;SDS011;50528;48.514;14.394;2022-07-25T03:11:15;9.00;;;8.10;;
64210;SDS011;50528;48.514;14.394;2022-07-25T03:12:19;9.30;;;7.90;;
64210;SDS011;50528;48.514;14.394;2022-07-25T03:13:23;11.40;;;7.70;;
64210;SDS011;50528;48.514;14.394;2022-07-25T03:14:26;9.10;;;7.60;;
64210;SDS011;50528;48.514;14.394;2022-07-25T03:15:30;9.10;;;7.60;;
64210;SDS011;50528;48.514;14.394;2022-07-25T03:16:34;10.00;;;7.20;;
64210;SDS011;50528;48.514;14.394;2022-07-25T03:17:39;10.00;;;7.20;;
64210;SDS011;50528;48.514;14.394;2022-07-25T03:18:42;9.30;;;7.10;;
64210;SDS011;50528;48.514;14.394;2022-07-25T03:19:46;9.90;;;7.60;;
64210;SDS011;50528;48.514;14.394;2022-07-25T03:20:49;9.30;;;7.30;;
64210;SDS011;50528;48.514;14.394;2022-07-25T03:21:52;10.00;;;7.70;;
64210;SDS011;50528;48.514;14.394;2022-07-25T03:22:56;10.40;;;7.90;;
64210;SDS011;50528;48.514;14.394;2022-07-25T03:23:59;10.10;;;8.00;;
64210;SDS011;50528;48.514;14.394;2022-07-25T03:25:03;8.90;;;7.90;;
64210;SDS011;50528;48.514;14.394;2022-07-25T03:26:17;10.30;;;8.00;;
64210;SDS011;50528;48.514;14.394;2022-07-25T03:27:20;10.60;;;7.80;;
64210;SDS011;50528;48.514;14.394;2022-07-25T03:28:24;9.20;;;7.60;;
64210;SDS011;50528;48.514;14.394;2022-07-25T03:29:27;11.70;;;7.90;;
64210;SDS011;50528;48.514;14.394;2022-07-25T03:30:31;12.40;;;7.90;;
64210;SDS011;50528;48.514;14.394;2022-07-25T03:31:34;10.50;;;7.70;;
64210;SDS011;50528;48.514;14.394;2022-07-25T03:32:39;11.20;;;7.90;;
64210;SDS011;50528;48.514;14.394;2022-07-25T03:33:42;8.90;;;7.80;;
64210;SDS011;50528;48.514;14.394;2022-07-25T03:34:45;11.70;;;7.90;;
64210;SDS011;50528;48.514;14.394;2022-07-25T03:35:49;11.90;;;8.50;;
64210;SDS011;50528;48.514;14.394;2022-07-25T03:36:52;10.20;;;8.00;;
64210;SDS011;50528;48.514;14.394;2022-07-25T03:37:56;10.20;;;7.70;;
64210;SDS011;50528;48.514;14.394;2022-07-25T03:39:02;11.70;;;7.20;;
64210;SDS011;50528;48.514;14.394;2022-07-25T03:40:07;8.40;;;7.20;;
64210;SDS011;50528;48.514;14.394;2022-07-25T03:41:11;10.30;;;7.20;;
64210;SDS011;50528;48.514;14.394;2022-07-25T03:42:15;10.50;;;7.00;;
64210;SDS011;50528;48.514;14.394;2022-07-25T03:43:19;9.00;;;7.10;;
64210;SDS011;50528;48.514;14.394;2022-07-25T03:44:22;10.90;;;7.30;;
64210;SDS011;50528;48.514;14.394;2022-07-25T03:45:33;11.50;;;7.40;;
64210;SDS011;50528;48.514;14.394;2022-07-25T03:46:37;9.70;;;7.70;;
64210;SDS011;50528;48.514;14.394;2022-07-25T03:47:40;13.20;;;7.80;;
64210;SDS011;50528;48.514;14.394;2022-07-25T03:48:44;10.60;;;8.20;;
64210;SDS011;50528;48.514;14.394;2022-07-25T03:49:47;11.90;;;7.90;;
64210;SDS011;50528;48.514;14.394;2022-07-25T03:50:54;11.20;;;7.70;;
64210;SDS011;50528;48.514;14.394;2022-07-25T03:51:58;12.10;;;8.10;;
64210;SDS011;50528;48.514;14.394;2022-07-25T03:53:03;14.10;;;8.20;;
64210;SDS011;50528;48.514;14.394;2022-07-25T03:54:06;11.30;;;7.50;;
64210;SDS011;50528;48.514;14.394;2022-07-25T03:55:15;12.00;;;8.10;;
64210;SDS011;50528;48.514;14.394;2022-07-25T03:56:20;8.90;;;7.20;;
64210;SDS011;50528;48.514;14.394;2022-07-25T03:57:23;13.00;;;8.10;;
64210;SDS011;50528;48.514;14.394;2022-07-25T03:58:27;9.40;;;7.60;;
64210;SDS011;50528;48.514;14.394;2022-07-25T03:59:30;9.30;;;8.20;;
64210;SDS011;50528;48.514;14.394;2022-07-25T04:00:34;10.10;;;8.00;;
64210;SDS011;50528;48.514;14.394;2022-07-25T04:01:39;9.40;;;7.90;;
64210;SDS011;50528;48.514;14.394;2022-07-25T04:02:44;9.50;;;8.30;;
64210;SDS011;50528;48.514;14.394;2022-07-25T04:03:47;10.70;;;8.30;;
64210;SDS011;50528;48.514;14.394;2022-07-25T04:04:51;10.60;;;8.20;;
64210;SDS011;50528;48.514;14.394;2022-07-25T04:05:55;9.50;;;8.20;;
64210;SDS011;50528;48.514;14.394;2022-07-25T04:06:58;10.80;;;8.50;;
64210;SDS011;50528;48.514;14.394;2022-07-25T04:08:02;11.80;;;9.10;;
64210;SDS011;50528;48.514;14.394;2022-07-25T04:09:08;10.00;;;9.00;;
64210;SDS011;50528;48.514;14.394;2022-07-25T04:10:13;10.70;;;8.40;;
64210;SDS011;50528;48.514;14.394;2022-07-25T04:11:16;10.60;;;8.50;;
64210;SDS011;50528;48.514;14.394;2022-07-25T04:12:20;10.20;;;8.10;;
64210;SDS011;50528;48.514;14.394;2022-07-25T04:13:23;10.40;;;8.20;;
64210;SDS011;50528;48.514;14.394;2022-07-25T04:14:27;10.60;;;7.70;;
64210;SDS011;50528;48.514;14.394;2022-07-25T04:15:31;9.80;;;8.30;;
64210;SDS011;50528;48.514;14.394;2022-07-25T04:16:35;8.40;;;7.30;;
64210;SDS011;50528;48.514;14.394;2022-07-25T04:17:41;9.30;;;7.90;;
64210;SDS011;50528;48.514;14.394;2022-07-25T04:18:45;10.10;;;7.80;;
64210;SDS011;50528;48.514;14.394;2022-07-25T04:19:53;12.10;;;8.00;;
64210;SDS011;50528;48.514;14.394;2022-07-25T04:20:59;11.90;;;8.30;;
64210;SDS011;50528;48.514;14.394;2022-07-25T04:22:03;10.00;;;8.40;;
64210;SDS011;50528;48.514;14.394;2022-07-25T04:23:06;12.60;;;8.70;;
64210;SDS011;50528;48.514;14.394;2022-07-25T04:24:10;11.30;;;8.60;;
64210;SDS011;50528;48.514;14.394;2022-07-25T04:25:13;14.10;;;8.60;;
64210;SDS011;50528;48.514;14.394;2022-07-25T04:26:18;10.60;;;8.20;;
64210;SDS011;50528;48.514;14.394;2022-07-25T04:27:22;12.50;;;9.00;;
64210;SDS011;50528;48.514;14.394;2022-07-25T04:28:25;12.90;;;8.60;;
64210;SDS011;50528;48.514;14.394;2022-07-25T04:29:29;12.30;;;8.80;;
64210;SDS011;50528;48.514;14.394;2022-07-25T04:30:33;10.30;;;8.50;;
64210;SDS011;50528;48.514;14.394;2022-07-25T04:31:38;13.80;;;8.50;;
64210;SDS011;50528;48.514;14.394;2022-07-25T04:32:42;12.20;;;8.70;;
64210;SDS011;50528;48.514;14.394;2022-07-25T04:33:45;9.70;;;8.70;;
64210;SDS011;50528;48.514;14.394;2022-07-25T04:34:49;11.90;;;8.70;;
64210;SDS011;50528;48.514;14.394;2022-07-25T04:35:54;10.50;;;9.00;;
64210;SDS011;50528;48.514;14.394;2022-07-25T04:36:57;12.90;;;9.50;;
64210;SDS011;50528;48.514;14.394;2022-07-25T04:38:01;12.50;;;8.70;;
64210;SDS011;50528;48.514;14.394;2022-07-25T04:39:08;11.70;;;8.80;;
64210;SDS011;50528;48.514;14.394;2022-07-25T04:40:11;12.90;;;9.10;;
64210;SDS011;50528;48.514;14.394;2022-07-25T04:41:15;10.20;;;8.80;;
64210;SDS011;50528;48.514;14.394;2022-07-25T04:42:18;10.80;;;8.80;;
64210;SDS011;50528;48.514;14.394;2022-07-25T04:43:22;11.40;;;8.40;;
64210;SDS011;50528;48.514;14.394;2022-07-25T04:44:26;12.30;;;8.60;;
64210;SDS011;50528;48.514;14.394;2022-07-25T04:45:30;12.50;;;8.80;;
64210;SDS011;50528;48.514;14.394;2022-07-25T04:46:35;11.40;;;8.80;;
64210;SDS011;50528;48.514;14.394;2022-07-25T04:47:39;10.70;;;8.60;;
64210;SDS011;50528;48.514;14.394;2022-07-25T04:48:42;10.30;;;8.50;;
64210;SDS011;50528;48.514;14.394;2022-07-25T04:49:47;12.70;;;8.90;;
64210;SDS011;50528;48.514;14.394;2022-07-25T04:50:51;10.80;;;9.00;;
64210;SDS011;50528;48.514;14.394;2022-07-25T04:51:55;11.50;;;9.10;;
64210;SDS011;50528;48.514;14.394;2022-07-25T04:52:58;11.70;;;9.50;;
64210;SDS011;50528;48.514;14.394;2022-07-25T04:54:02;12.10;;;9.50;;
64210;SDS011;50528;48.514;14.394;2022-07-25T04:55:07;12.20;;;9.60;;
64210;SDS011;50528;48.514;14.394;2022-07-25T04:56:10;10.30;;;9.20;;
64210;SDS011;50528;48.514;14.394;2022-07-25T04:57:14;11.20;;;9.30;;
64210;SDS011;50528;48.514;14.394;2022-07-25T04:58:17;10.60;;;9.30;;
64210;SDS011;50528;48.514;14.394;2022-07-25T04:59:21;10.50;;;9.30;;
64210;SDS011;50528;48.514;14.394;2022-07-25T05:00:25;12.20;;;9.60;;
64210;SDS011;50528;48.514;14.394;2022-07-25T05:01:28;13.00;;;9.90;;
64210;SDS011;50528;48.514;14.394;2022-07-25T05:02:32;11.60;;;9.70;;
64210;SDS011;50528;48.514;14.394;2022-07-25T05:03:37;12.80;;;10.00;;
64210;SDS011;50528;48.514;14.394;2022-07-25T05:04:40;10.70;;;9.60;;
64210;SDS011;50528;48.514;14.394;2022-07-25T05:05:47;11.60;;;9.40;;
64210;SDS011;50528;48.514;14.394;2022-07-25T05:06:50;12.00;;;10.00;;
64210;SDS011;50528;48.514;14.394;2022-07-25T05:07:54;12.60;;;9.90;;
64210;SDS011;50528;48.514;14.394;2022-07-25T05:08:59;12.50;;;9.90;;
64210;SDS011;50528;48.514;14.394;2022-07-25T05:10:03;14.40;;;10.10;;
64210;SDS011;50528;48.514;14.394;2022-07-25T05:11:07;11.70;;;10.20;;
64210;SDS011;50528;48.514;14.394;2022-07-25T05:12:12;13.10;;;10.30;;
64210;SDS011;50528;48.514;14.394;2022-07-25T05:13:15;14.10;;;9.90;;
64210;SDS011;50528;48.514;14.394;2022-07-25T05:14:19;10.70;;;9.40;;
64210;SDS011;50528;48.514;14.394;2022-07-25T05:15:22;12.40;;;9.70;;
64210;SDS011;50528;48.514;14.394;2022-07-25T05:16:26;13.50;;;9.40;;
64210;SDS011;50528;48.514;14.394;2022-07-25T05:17:30;12.00;;;9.60;;
64210;SDS011;50528;48.514;14.394;2022-07-25T05:18:34;14.00;;;9.50;;
64210;SDS011;50528;48.514;14.394;2022-07-25T05:19:37;11.30;;;9.10;;
64210;SDS011;50528;48.514;14.394;2022-07-25T05:20:41;12.20;;;9.60;;
64210;SDS011;50528;48.514;14.394;2022-07-25T05:21:48;9.80;;;8.80;;
64210;SDS011;50528;48.514;14.394;2022-07-25T05:22:52;12.00;;;9.60;;
64210;SDS011;50528;48.514;14.394;2022-07-25T05:23:56;11.10;;;9.10;;
64210;SDS011;50528;48.514;14.394;2022-07-25T05:24:59;12.70;;;9.10;;
64210;SDS011;50528;48.514;14.394;2022-07-25T05:26:04;11.50;;;8.80;;
64210;SDS011;50528;48.514;14.394;2022-07-25T05:27:08;10.30;;;8.90;;
64210;SDS011;50528;48.514;14.394;2022-07-25T05:28:11;10.90;;;8.90;;
64210;SDS011;50528;48.514;14.394;2022-07-25T05:29:16;9.70;;;8.70;;
64210;SDS011;50528;48.514;14.394;2022-07-25T05:30:23;12.00;;;8.50;;
64210;SDS011;50528;48.514;14.394;2022-07-25T05:31:26;8.80;;;7.90;;
64210;SDS011;50528;48.514;14.394;2022-07-25T05:32:30;10.30;;;8.10;;
64210;SDS011;50528;48.514;14.394;2022-07-25T05:33:34;8.70;;;7.80;;
64210;SDS011;50528;48.514;14.394;2022-07-25T05:34:38;9.70;;;8.00;;
64210;SDS011;50528;48.514;14.394;2022-07-25T05:35:42;9.60;;;8.60;;
64210;SDS011;50528;48.514;14.394;2022-07-25T05:36:46;11.90;;;8.50;;
64210;SDS011;50528;48.514;14.394;2022-07-25T05:37:50;10.80;;;8.80;;
64210;SDS011;50528;48.514;14.394;2022-07-25T05:38:53;9.80;;;8.80;;
64210;SDS011;50528;48.514;14.394;2022-07-25T05:39:57;14.30;;;8.70;;
64210;SDS011;50528;48.514;14.394;2022-07-25T05:41:00;12.60;;;8.60;;
64210;SDS011;50528;48.514;14.394;2022-07-25T05:42:05;10.40;;;8.90;;
64210;SDS011;50528;48.514;14.394;2022-07-25T05:43:09;11.60;;;8.90;;
64210;SDS011;50528;48.514;14.394;2022-07-25T05:44:13;9.70;;;8.60;;
64210;SDS011;50528;48.514;14.394;2022-07-25T05:45:16;10.00;;;8.80;;
64210;SDS011;50528;48.514;14.394;2022-07-25T05:48:15;10.90;;;8.30;;
64210;SDS011;50528;48.514;14.394;2022-07-25T05:49:23;10.70;;;8.60;;
64210;SDS011;50528;48.514;14.394;2022-07-25T05:50:30;11.00;;;8.60;;
64210;SDS011;50528;48.514;14.394;2022-07-25T05:51:34;9.20;;;8.20;;
64210;SDS011;50528;48.514;14.394;2022-07-25T05:53:08;10.70;;;8.80;;
64210;SDS011;50528;48.514;14.394;2022-07-25T05:54:20;10.40;;;8.60;;
64210;SDS011;50528;48.514;14.394;2022-07-25T05:55:24;10.50;;;7.80;;
64210;SDS011;50528;48.514;14.394;2022-07-25T05:56:27;9.90;;;8.10;;
64210;SDS011;50528;48.514;14.394;2022-07-25T05:57:33;9.70;;;8.40;;
64210;SDS011;50528;48.514;14.394;2022-07-25T05:58:41;11.50;;;8.80;;
64210;SDS011;50528;48.514;14.394;2022-07-25T06:00:14;9.80;;;8.80;;
64210;SDS011;50528;48.514;14.394;2022-07-25T06:01:30;8.80;;;7.90;;
64210;SDS011;50528;48.514;14.394;2022-07-25T06:02:43;12.60;;;8.40;;
64210;SDS011;50528;48.514;14.394;2022-07-25T06:03:52;9.30;;;8.00;;
64210;SDS011;50528;48.514;14.394;2022-07-25T06:04:57;11.30;;;8.60;;
64210;SDS011;50528;48.514;14.394;2022-07-25T06:06:01;9.60;;;7.80;;
64210;SDS011;50528;48.514;14.394;2022-07-25T06:07:07;8.70;;;7.70;;
64210;SDS011;50528;48.514;14.394;2022-07-25T06:08:13;10.50;;;8.50;;
64210;SDS011;50528;48.514;14.394;2022-07-25T06:09:20;10.50;;;8.40;;
64210;SDS011;50528;48.514;14.394;2022-07-25T06:10:25;9.70;;;8.20;;
64210;SDS011;50528;48.514;14.394;2022-07-25T06:11:29;7.80;;;7.00;;
64210;SDS011;50528;48.514;14.394;2022-07-25T06:12:56;11.00;;;8.40;;
64210;SDS011;50528;48.514;14.394;2022-07-25T06:14:40;9.00;;;8.00;;
64210;SDS011;50528;48.514;14.394;2022-07-25T06:15:49;9.30;;;8.00;;
64210;SDS011;50528;48.514;14.394;2022-07-25T06:16:56;9.40;;;8.40;;
64210;SDS011;50528;48.514;14.394;2022-07-25T06:18:05;9.50;;;7.80;;
64210;SDS011;50528;48.514;14.394;2022-07-25T06:19:09;10.20;;;7.90;;
64210;SDS011;50528;48.514;14.394;2022-07-25T06:20:12;10.80;;;8.20;;
64210;SDS011;50528;48.514;14.394;2022-07-25T06:21:41;10.40;;;7.80;;
64210;SDS011;50528;48.514;14.394;2022-07-25T06:22:46;8.80;;;7.90;;
64210;SDS011;50528;48.514;14.394;2022-07-25T06:24:04;10.20;;;7.80;;
64210;SDS011;50528;48.514;14.394;2022-07-25T06:25:09;9.10;;;8.10;;
64210;SDS011;50528;48.514;14.394;2022-07-25T06:26:24;9.40;;;8.30;;
64210;SDS011;50528;48.514;14.394;2022-07-25T06:27:37;8.30;;;7.40;;
64210;SDS011;50528;48.514;14.394;2022-07-25T06:28:41;8.80;;;7.90;;